Wetterstation Vordersexau
Wetterdaten: Woche 27.11.23 - 03.12.23 (KW48)
Datum Zeit Temp. A. Feuchte A. Luftdruck Regen Wind Richtung Taupunkt Windchill Windben
27.11.2023 00:00 0,1 C 99 % 1011,0 hPa 0,0 l/m 0,0 km/h (0 Bft) N -0,0 C 0,1 C 2,5 km/h (1 Bft)
27.11.2023 01:00 0,5 C 99 % 1010,5 hPa 0,0 l/m 0,0 km/h (0 Bft) N 0,4 C 0,5 C 0,0 km/h (0 Bft)
27.11.2023 02:00 0,3 C 99 % 1009,8 hPa 0,0 l/m 0,0 km/h (0 Bft) N 0,2 C 0,3 C 2,5 km/h (1 Bft)
27.11.2023 03:00 0,5 C 99 % 1008,6 hPa 0,0 l/m 0,0 km/h (0 Bft) N 0,4 C 0,5 C 0,0 km/h (0 Bft)
27.11.2023 04:00 0,4 C 99 % 1008,2 hPa 0,0 l/m 0,0 km/h (0 Bft) N 0,3 C 0,4 C 2,5 km/h (1 Bft)
27.11.2023 05:00 -0,3 C 99 % 1007,3 hPa 0,0 l/m 0,0 km/h (0 Bft) N -0,4 C -0,3 C 2,5 km/h (1 Bft)
27.11.2023 06:00 -0,9 C 99 % 1006,8 hPa 0,0 l/m 0,0 km/h (0 Bft) N -1,0 C -0,9 C 0,0 km/h (0 Bft)
27.11.2023 07:00 -0,5 C 99 % 1006,3 hPa 0,0 l/m 0,0 km/h (0 Bft) SO -0,6 C -0,5 C 2,5 km/h (1 Bft)
27.11.2023 08:00 0,2 C 99 % 1005,8 hPa 0,0 l/m 3,6 km/h (1 Bft) O 0,1 C 0,2 C 3,6 km/h (1 Bft)
27.11.2023 09:00 0,8 C 99 % 1004,9 hPa 0,0 l/m 2,5 km/h (1 Bft) S-SW 0,7 C 0,8 C 6,1 km/h (2 Bft)
27.11.2023 10:00 4,7 C 78 % 1004,3 hPa 0,0 l/m 6,1 km/h (2 Bft) W-SW 1,2 C 4,7 C 9,7 km/h (2 Bft)
27.11.2023 11:00 5,8 C 74 % 1003,6 hPa 0,0 l/m 5,0 km/h (1 Bft) SW 1,5 C 5,8 C 9,7 km/h (2 Bft)
27.11.2023 12:00 5,9 C 64 % 1002,7 hPa 0,0 l/m 14,8 km/h (3 Bft) SW -0,4 C 0,3 C 24,5 km/h (4 Bft)
27.11.2023 13:00 4,7 C 76 % 1001,2 hPa 0,0 l/m 9,3 km/h (2 Bft) SW 0,8 C 2,3 C 14,5 km/h (3 Bft)
27.11.2023 14:00 3,9 C 85 % 999,3 hPa 1,2 l/m 5,4 km/h (1 Bft) S-SO 1,6 C 3,9 C 8,0 km/h (2 Bft)
27.11.2023 15:00 3,7 C 87 % 998,4 hPa 1,2 l/m 9,1 km/h (2 Bft) S-SO 1,7 C 1,1 C 12,8 km/h (3 Bft)
27.11.2023 16:00 3,0 C 92 % 997,7 hPa 6,6 l/m 9,7 km/h (2 Bft) S 1,7 C 0,3 C 12,8 km/h (3 Bft)
27.11.2023 17:00 3,1 C 94 % 996,6 hPa 10,8 l/m 6,6 km/h (2 Bft) S-SW 2,2 C 2,7 C 9,2 km/h (2 Bft)
27.11.2023 18:00 3,8 C 93 % 995,5 hPa 7,2 l/m 6,1 km/h (2 Bft) W-SW 2,8 C 3,4 C 9,2 km/h (2 Bft)
27.11.2023 19:00 3,9 C 92 % 994,4 hPa 1,2 l/m 11,2 km/h (2 Bft) SW 2,7 C 0,0 C 17,3 km/h (3 Bft)
27.11.2023 20:00 4,0 C 92 % 994,0 hPa 2,4 l/m 12,3 km/h (3 Bft) W-SW 2,8 C -0,6 C 19,1 km/h (3 Bft)
27.11.2023 21:00 4,2 C 92 % 993,0 hPa 0,6 l/m 12,2 km/h (2 Bft) W-SW 3,0 C -0,3 C 20,9 km/h (4 Bft)
27.11.2023 22:00 4,2 C 92 % 993,0 hPa 0,6 l/m 12,2 km/h (2 Bft) W-SW 3,0 C -0,3 C 20,9 km/h (4 Bft)
27.11.2023 23:00 5,1 C 89 % 992,1 hPa 0,0 l/m 12,2 km/h (2 Bft) W-SW 3,4 C 1,0 C 17,6 km/h (3 Bft)
28.11.2023 00:00 5,6 C 88 % 991,6 hPa 0,0 l/m 9,7 km/h (2 Bft) W-SW 3,8 C 2,9 C 14,8 km/h (3 Bft)
28.11.2023 01:00 6,1 C 88 % 990,8 hPa 0,0 l/m 13,3 km/h (3 Bft) S 4,3 C 1,3 C 22,0 km/h (4 Bft)
28.11.2023 02:00 6,4 C 88 % 990,5 hPa 0,0 l/m 12,2 km/h (2 Bft) S-SW 4,6 C 2,3 C 20,9 km/h (4 Bft)
28.11.2023 03:00 6,6 C 92 % 990,1 hPa 0,0 l/m 11,2 km/h (2 Bft) W-SW 5,4 C 3,1 C 17,3 km/h (3 Bft)
28.11.2023 04:00 6,6 C 92 % 990,0 hPa 0,9 l/m 8,6 km/h (2 Bft) W-SW 5,4 C 4,8 C 13,3 km/h (3 Bft)
28.11.2023 05:00 6,6 C 92 % 989,9 hPa 0,0 l/m 7,2 km/h (2 Bft) W 5,4 C 5,9 C 13,3 km/h (3 Bft)
28.11.2023 06:00 6,0 C 96 % 990,8 hPa 4,5 l/m 2,5 km/h (1 Bft) NW 5,4 C 6,0 C 3,6 km/h (1 Bft)
28.11.2023 07:00 5,2 C 97 % 991,9 hPa 10,8 l/m 2,5 km/h (1 Bft) W-NW 4,8 C 5,2 C 6,1 km/h (2 Bft)
28.11.2023 08:00 4,6 C 95 % 993,7 hPa 0,9 l/m 6,1 km/h (2 Bft) W-NW 3,9 C 4,6 C 11,2 km/h (2 Bft)
28.11.2023 09:00 3,0 C 96 % 995,5 hPa 2,4 l/m 2,5 km/h (1 Bft) NW 2,4 C 3,0 C 6,1 km/h (2 Bft)
28.11.2023 10:00 3,0 C 96 % 995,5 hPa 1,2 l/m 2,5 km/h (1 Bft) NO 2,4 C 3,0 C 6,1 km/h (2 Bft)
28.11.2023 11:00 2,7 C 91 % 997,1 hPa 0,0 l/m 2,5 km/h (1 Bft) NO 1,4 C 2,7 C 3,6 km/h (1 Bft)
28.11.2023 12:00 2,6 C 89 % 998,5 hPa 0,3 l/m 1,1 km/h (1 Bft) N 1,0 C 2,6 C 2,5 km/h (1 Bft)
28.11.2023 13:00 2,1 C 95 % 999,9 hPa 1,8 l/m 0,0 km/h (0 Bft) N 1,4 C 2,1 C 0,0 km/h (0 Bft)
28.11.2023 14:00 2,2 C 93 % 1000,7 hPa 0,0 l/m 0,0 km/h (0 Bft) N 1,2 C 2,2 C 0,0 km/h (0 Bft)
28.11.2023 15:00 2,2 C 93 % 1000,7 hPa 0,0 l/m 0,0 km/h (0 Bft) N-NW 1,2 C 2,2 C 0,0 km/h (0 Bft)
28.11.2023 16:00 2,3 C 90 % 1001,5 hPa 0,0 l/m 1,1 km/h (1 Bft) N-NW 0,8 C 2,3 C 2,5 km/h (1 Bft)
28.11.2023 17:00 2,0 C 95 % 1002,8 hPa 0,0 l/m 0,0 km/h (0 Bft) N 1,3 C 2,0 C 1,3 km/h (1 Bft)
28.11.2023 18:00 1,2 C 97 % 1003,8 hPa 0,0 l/m 0,0 km/h (0 Bft) N 0,8 C 1,2 C 0,0 km/h (0 Bft)
28.11.2023 19:00 1,2 C 97 % 1003,8 hPa 0,0 l/m 0,0 km/h (0 Bft) N 0,8 C 1,2 C 0,0 km/h (0 Bft)
28.11.2023 20:00 1,3 C 98 % 1004,4 hPa 0,3 l/m 0,0 km/h (0 Bft) N 1,0 C 1,3 C 0,0 km/h (0 Bft)
28.11.2023 21:00 0,9 C 98 % 1004,9 hPa 0,0 l/m 0,0 km/h (0 Bft) N 0,6 C 0,9 C 0,0 km/h (0 Bft)
28.11.2023 22:00 0,9 C 99 % 1005,3 hPa 0,0 l/m 0,0 km/h (0 Bft) N 0,8 C 0,9 C 0,0 km/h (0 Bft)
28.11.2023 23:00 0,9 C 99 % 1005,3 hPa 0,0 l/m 0,0 km/h (0 Bft) N 0,8 C 0,9 C 0,0 km/h (0 Bft)
29.11.2023 00:00 0,1 C 99 % 1004,9 hPa 0,0 l/m 0,0 km/h (0 Bft) N -0,0 C 0,1 C 0,0 km/h (0 Bft)
29.11.2023 01:00 0,2 C 99 % 1004,8 hPa 0,0 l/m 0,0 km/h (0 Bft) N 0,1 C 0,2 C 0,0 km/h (0 Bft)
29.11.2023 02:00 0,2 C 99 % 1004,8 hPa 0,0 l/m 0,0 km/h (0 Bft) SW 0,1 C 0,2 C 0,0 km/h (0 Bft)
29.11.2023 03:00 -0,2 C 97 % 1004,7 hPa 0,0 l/m 1,3 km/h (1 Bft) N -0,7 C -0,2 C 3,0 km/h (1 Bft)
29.11.2023 04:00 -1,2 C 98 % 1004,5 hPa 0,0 l/m 0,0 km/h (0 Bft) S -1,5 C -1,2 C 0,0 km/h (0 Bft)
29.11.2023 05:00 -1,0 C 98 % 1004,0 hPa 0,0 l/m 1,1 km/h (1 Bft) S-SO -1,3 C -1,0 C 3,6 km/h (1 Bft)
29.11.2023 06:00 -0,5 C 97 % 1003,9 hPa 0,0 l/m 1,1 km/h (1 Bft) S-SO -0,9 C -0,5 C 2,5 km/h (1 Bft)
29.11.2023 07:00 -0,5 C 97 % 1003,9 hPa 0,0 l/m 1,1 km/h (1 Bft) W-SW -0,9 C -0,5 C 2,5 km/h (1 Bft)
29.11.2023 08:00 1,3 C 81 % 1003,8 hPa 0,0 l/m 3,6 km/h (1 Bft) SW -1,6 C 1,3 C 6,1 km/h (2 Bft)
29.11.2023 09:00 1,9 C 78 % 1004,2 hPa 0,0 l/m 6,1 km/h (2 Bft) SW -1,5 C 1,9 C 7,2 km/h (2 Bft)
29.11.2023 10:00 1,9 C 78 % 1004,2 hPa 0,0 l/m 6,1 km/h (2 Bft) S-SW -1,5 C 1,9 C 7,2 km/h (2 Bft)
29.11.2023 11:00 3,2 C 76 % 1004,1 hPa 0,0 l/m 10,4 km/h (2 Bft) W-SW -0,7 C -0,1 C 14,3 km/h (3 Bft)
29.11.2023 12:00 5,4 C 70 % 1002,8 hPa 0,0 l/m 9,7 km/h (2 Bft) SW 0,4 C 2,7 C 14,8 km/h (3 Bft)
29.11.2023 13:00 6,1 C 68 % 1002,3 hPa 0,0 l/m 8,6 km/h (2 Bft) W-SW 0,6 C 4,3 C 14,8 km/h (3 Bft)
29.11.2023 14:00 5,3 C 66 % 1001,7 hPa 0,0 l/m 8,6 km/h (2 Bft) W-SW -0,5 C 3,4 C 13,3 km/h (3 Bft)
29.11.2023 15:00 5,3 C 66 % 1001,7 hPa 0,0 l/m 8,6 km/h (2 Bft) W-SW -0,5 C 3,4 C 13,3 km/h (3 Bft)
29.11.2023 16:00 6,2 C 66 % 1001,1 hPa 0,0 l/m 3,6 km/h (1 Bft) S 0,3 C 6,2 C 6,1 km/h (2 Bft)
29.11.2023 17:00 3,8 C 76 % 1001,4 hPa 0,0 l/m 1,1 km/h (1 Bft) S-SO -0,0 C 3,8 C 3,6 km/h (1 Bft)
29.11.2023 18:00 0,9 C 91 % 1001,1 hPa 0,0 l/m 0,6 km/h (0 Bft) SO -0,4 C 0,9 C 1,3 km/h (1 Bft)
29.11.2023 19:00 0,4 C 93 % 1001,1 hPa 0,0 l/m 1,1 km/h (1 Bft) N -0,6 C 0,4 C 2,5 km/h (1 Bft)
29.11.2023 20:00 0,6 C 93 % 1000,5 hPa 0,0 l/m 0,0 km/h (0 Bft) SO -0,4 C 0,6 C 0,0 km/h (0 Bft)
29.11.2023 21:00 0,4 C 93 % 1000,0 hPa 0,0 l/m 3,6 km/h (1 Bft) O -0,6 C 0,4 C 6,1 km/h (2 Bft)
29.11.2023 22:00 0,3 C 92 % 999,6 hPa 0,0 l/m 1,1 km/h (1 Bft) N -0,8 C 0,3 C 2,5 km/h (1 Bft)
29.11.2023 23:00 -0,1 C 93 % 999,4 hPa 0,0 l/m 0,0 km/h (0 Bft) N -1,1 C -0,1 C 0,0 km/h (0 Bft)
30.11.2023 00:00 0,0 C 91 % 999,0 hPa 0,0 l/m 0,0 km/h (0 Bft) SO -1,3 C 0,0 C 2,5 km/h (1 Bft)
30.11.2023 01:00 0,2 C 92 % 998,8 hPa 0,0 l/m 3,6 km/h (1 Bft) SO -0,9 C 0,2 C 7,2 km/h (2 Bft)
30.11.2023 02:00 0,2 C 92 % 998,8 hPa 0,0 l/m 3,6 km/h (1 Bft) SO -0,9 C 0,2 C 7,2 km/h (2 Bft)
30.11.2023 03:00 0,3 C 92 % 998,3 hPa 0,0 l/m 1,1 km/h (1 Bft) SO -0,8 C 0,3 C 3,6 km/h (1 Bft)
30.11.2023 04:00 0,5 C 91 % 997,9 hPa 0,0 l/m 2,5 km/h (1 Bft) SO -0,8 C 0,5 C 3,6 km/h (1 Bft)
30.11.2023 05:00 0,9 C 90 % 996,7 hPa 0,0 l/m 2,5 km/h (1 Bft) N -0,6 C 0,9 C 7,2 km/h (2 Bft)
30.11.2023 06:00 0,9 C 91 % 996,6 hPa 0,0 l/m 0,0 km/h (0 Bft) N -0,4 C 0,9 C 2,5 km/h (1 Bft)
30.11.2023 07:00 1,1 C 91 % 996,4 hPa 0,0 l/m 0,0 km/h (0 Bft) N -0,2 C 1,1 C 0,0 km/h (0 Bft)
30.11.2023 08:00 1,0 C 93 % 995,8 hPa 0,0 l/m 0,0 km/h (0 Bft) N -0,0 C 1,0 C 2,5 km/h (1 Bft)
30.11.2023 09:00 1,1 C 94 % 996,0 hPa 0,0 l/m 0,0 km/h (0 Bft) N 0,2 C 1,1 C 0,0 km/h (0 Bft)
30.11.2023 10:00 1,0 C 96 % 995,6 hPa 0,3 l/m 0,0 km/h (0 Bft) N 0,4 C 1,0 C 0,0 km/h (0 Bft)
30.11.2023 11:00 1,3 C 97 % 995,6 hPa 1,2 l/m 0,0 km/h (0 Bft) W 0,9 C 1,3 C 0,0 km/h (0 Bft)
30.11.2023 12:00 1,0 C 98 % 995,9 hPa 0,6 l/m 1,1 km/h (1 Bft) N 0,7 C 1,0 C 2,5 km/h (1 Bft)
30.11.2023 13:00 11,8 C 90 % 1002,3 hPa 1,2 l/m 14,8 km/h (3 Bft) O-NO 10,1 C 9,8 C 23,2 km/h (4 Bft)
30.11.2023 14:00 20,0 C 96 % 1009,8 hPa 9,0 l/m 1,1 km/h (1 Bft) N 19,3 C 20,0 C 2,5 km/h (1 Bft)
30.11.2023 15:00 19,6 C 94 % 1007,9 hPa 2,1 l/m 0,0 km/h (0 Bft) N 18,6 C 19,6 C 2,5 km/h (1 Bft)
30.11.2023 16:00 19,3 C 98 % 1008,2 hPa 0,0 l/m 0,0 km/h (0 Bft) SO 19,0 C 19,3 C 0,0 km/h (0 Bft)
30.11.2023 17:00 19,2 C 98 % 1008,6 hPa 1,2 l/m 1,1 km/h (1 Bft) SO 18,9 C 19,2 C 2,5 km/h (1 Bft)
30.11.2023 18:00 19,2 C 98 % 1008,1 hPa 0,6 l/m 2,5 km/h (1 Bft) N 18,9 C 19,2 C 6,1 km/h (2 Bft)
30.11.2023 19:00 19,4 C 98 % 1007,9 hPa 0,0 l/m 0,0 km/h (0 Bft) N 19,1 C 19,4 C 0,0 km/h (0 Bft)
30.11.2023 20:00 19,2 C 99 % 1007,7 hPa 0,0 l/m 0,0 km/h (0 Bft) N 19,0 C 19,2 C 2,5 km/h (1 Bft)
30.11.2023 21:00 19,5 C 99 % 1007,8 hPa 0,0 l/m 0,0 km/h (0 Bft) W-SW 19,3 C 19,5 C 0,0 km/h (0 Bft)
30.11.2023 22:00 20,3 C 99 % 1009,1 hPa 0,0 l/m 6,1 km/h (2 Bft) S-SW 20,1 C 20,3 C 9,7 km/h (2 Bft)
30.11.2023 23:00 12,9 C 69 % 1010,7 hPa 0,0 l/m 1,8 km/h (1 Bft) N 7,2 C 12,9 C 3,0 km/h (1 Bft)
01.12.2023 16:00 0,0 C 1 % 1012,0 hPa 0,0 l/m 0,0 km/h (0 Bft) N -54,9 C 0,0 C 0,0 km/h (0 Bft)
01.12.2023 18:00 0,0 C 0 % 1012,1 hPa 0,0 l/m 0,0 km/h (0 Bft) N -56,6 C 0,0 C 0,8 km/h (0 Bft)
01.12.2023 19:00 0,0 C 0 % 1012,1 hPa 0,0 l/m 0,0 km/h (0 Bft) N -60,0 C 0,0 C 0,0 km/h (0 Bft)
01.12.2023 20:00 0,0 C 1 % 1012,1 hPa 0,0 l/m 0,0 km/h (0 Bft) N -54,9 C 0,0 C 0,0 km/h (0 Bft)
01.12.2023 22:00 0,0 C 1 % 1012,1 hPa 0,0 l/m 0,0 km/h (0 Bft) N -54,9 C 0,0 C 0,0 km/h (0 Bft)
02.12.2023 00:00 0,0 C 1 % 1012,1 hPa 0,0 l/m 0,0 km/h (0 Bft) N -54,9 C 0,0 C 0,0 km/h (0 Bft)
02.12.2023 01:00 3,8 C 8 % 996,3 hPa 0,0 l/m 0,0 km/h (0 Bft) N -30,0 C 3,8 C 0,0 km/h (0 Bft)
02.12.2023 02:00 3,4 C 1 % 1008,8 hPa 0,0 l/m 1,3 km/h (1 Bft) NW -53,8 C 3,4 C 1,8 km/h (1 Bft)
02.12.2023 04:00 1,9 C 3 % 1024,4 hPa 0,0 l/m 0,2 km/h (0 Bft) N -50,0 C 1,9 C 0,0 km/h (0 Bft)
02.12.2023 05:00 2,2 C 0 % 1029,1 hPa 0,0 l/m 0,4 km/h (0 Bft) N -56,6 C 2,2 C 0,0 km/h (0 Bft)
02.12.2023 07:00 0,0 C 1 % 1029,1 hPa 0,0 l/m 0,4 km/h (0 Bft) NW -54,9 C 0,0 C 0,0 km/h (0 Bft)
02.12.2023 08:00 3,0 C 58 % 1021,2 hPa 0,0 l/m 2,5 km/h (1 Bft) NW -4,4 C 3,0 C 3,6 km/h (1 Bft)
02.12.2023 10:00 0,0 C 1 % 1021,2 hPa 0,0 l/m 2,5 km/h (1 Bft) NW -54,9 C 0,0 C 3,6 km/h (1 Bft)
02.12.2023 11:00 1,3 C 9 % 1012,9 hPa 0,0 l/m 1,7 km/h (1 Bft) NW -41,3 C 1,3 C 2,4 km/h (1 Bft)
02.12.2023 12:00 3,8 C 41 % 996,3 hPa 0,0 l/m 0,0 km/h (0 Bft) N -13,9 C 3,8 C 0,0 km/h (0 Bft)
02.12.2023 16:00 53,3 C 40 % 766,5 hPa 0,0 l/m 8,9 km/h (2 Bft) N 26,9 C 53,3 C 0,0 km/h (0 Bft)
02.12.2023 18:00 6,8 C 20 % 1073,7 hPa 0,0 l/m 9,7 km/h (2 Bft) NW -32,6 C 2,9 C 1,2 km/h (1 Bft)
02.12.2023 21:00 0,0 C 1 % 1021,2 hPa 0,0 l/m 2,5 km/h (1 Bft) NW -54,9 C 0,0 C 3,6 km/h (1 Bft)
02.12.2023 23:00 0,0 C 1 % 1021,2 hPa 0,0 l/m 2,5 km/h (1 Bft) NW -54,9 C 0,0 C 3,6 km/h (1 Bft)
03.12.2023 00:00 0,0 C 1 % 924,4 hPa 0,0 l/m 6,5 km/h (2 Bft) N -54,9 C -0,1 C 0,0 km/h (0 Bft)
03.12.2023 03:00 1,6 C 13 % 924,4 hPa 0,0 l/m 6,5 km/h (2 Bft) N -43,3 C 1,6 C 0,0 km/h (0 Bft)
03.12.2023 04:00 6,3 C 24 % 956,4 hPa 0,0 l/m 4,3 km/h (1 Bft) NW -32,2 C 6,3 C 0,0 km/h (0 Bft)
03.12.2023 06:00 79,9 C 60 % 1009,9 hPa 0,0 l/m 13,3 km/h (3 Bft) NW 67,8 C 79,9 C 0,0 km/h (0 Bft)
03.12.2023 07:00 2,0 C 30 % 1100,0 hPa 0,0 l/m 13,3 km/h (3 Bft) NW -26,7 C -3,6 C 0,0 km/h (0 Bft)
03.12.2023 08:00 0,0 C 0 % 1100,0 hPa 0,0 l/m 13,3 km/h (3 Bft) NW -60,0 C -5,9 C 0,0 km/h (0 Bft)
03.12.2023 10:00 0,0 C 1 % 1100,0 hPa 0,0 l/m 13,3 km/h (3 Bft) NW -54,9 C -5,9 C 0,0 km/h (0 Bft)
Min-Datum _ 29.11.23 01.12.23 02.12.23 - 27.11.23 - 01.12.23 02.12.23 27.11.23
_ Min-Zeit 04:53 16:28 16:25 - 00:13 - 16:28 18:04 01:13
Minimum _ -1,2 C 0 % 650,0 hPa - 0,0 km/h (0 Bft) - -60,0 C -5,9 C 0,0 km/h (0 Bft)
Max-Datum _ 02.12.23 27.11.23 02.12.23 27.11.23 30.11.23 - 02.12.23 02.12.23 30.11.23
_ Max-Zeit 16:42 00:13 16:42 17:06 13:57 - 16:42 16:42 13:57
Maximum _ 80,0 C 99 % 1100,0 hPa 10,8 l/m 29,5 km/h
O-NO (5 Bft)
- 67,9 C 80,0 C 46,4 km/h
O-NO (6 Bft)
Durchschnitt _ 4,6 C 74 % 1002,5 hPa #71,1 l/m 3,6 km/h (1 Bft) W-SW -6,2 C 3,9 C 5,0 km/h (1 Bft)
www.sexauwetter.de